Time;durP1;ratioP1;P1;durP2;ratioP2;P2;SDS_P1;SDS_P2;PMS_P1;PMS_P2;Temp;Humidity;BMP_temperature;BMP_pressure;BME280_temperature;BME280_humidity;BME280_pressure;Samples;Min_cycle;Max_cycle;Signal;HPM_P1;HPM_P2
2022/06/18 01:33:31;;;;;;;4.93;4.50;;;;;;;;;;7386496;19;20457;-80
2022/06/18 01:35:57;;;;;;;5.43;4.93;;;;;;;;;;7381176;19;20175;-81
2022/06/18 01:38:26;;;;;;;5.13;4.73;;;;;;;;;;7380686;19;20149;-81
2022/06/18 01:41:49;;;;;;;5.43;4.93;;;;;;;;;;7379440;19;20160;-82
2022/06/18 01:43:45;;;;;;;6.10;5.03;;;;;;;;;;7377862;19;20701;-82
2022/06/18 01:46:11;;;;;;;5.60;5.13;;;;;;;;;;7379908;19;20181;-82
2022/06/18 01:48:39;;;;;;;6.80;4.90;;;;;;;;;;7386864;19;20148;-81
2022/06/18 01:51:15;;;;;;;6.50;5.43;;;;;;;;;;7383009;19;20148;-84
2022/06/18 01:53:47;;;;;;;5.67;4.87;;;;;;;;;;7377305;19;20156;-83
2022/06/18 01:56:19;;;;;;;8.47;5.30;;;;;;;;;;7389939;19;20173;-83
2022/06/18 01:58:50;;;;;;;4.83;4.40;;;;;;;;;;7385763;19;20157;-85
2022/06/18 02:01:20;;;;;;;7.93;5.07;;;;;;;;;;7388912;19;20137;-81
2022/06/18 02:03:46;;;;;;;6.27;4.93;;;;;;;;;;7382664;19;20153;-82
2022/06/18 02:06:12;;;;;;;7.83;5.47;;;;;;;;;;7384395;19;20191;-82
2022/06/18 02:08:38;;;;;;;6.37;5.63;;;;;;;;;;7387780;19;20141;-82
2022/06/18 02:11:05;;;;;;;7.77;5.90;;;;;;;;;;7389509;19;20598;-81
2022/06/18 02:13:36;;;;;;;5.17;4.77;;;;;;;;;;7392180;19;20191;-82
2022/06/18 02:16:05;;;;;;;7.53;5.50;;;;;;;;;;7416236;19;20169;-83
2022/06/18 02:18:33;;;;;;;7.50;5.33;;;;;;;;;;7416395;19;20147;-83
2022/06/18 02:21:00;;;;;;;8.37;5.90;;;;;;;;;;7396219;19;20171;-82
2022/06/18 02:23:26;;;;;;;6.37;5.53;;;;;;;;;;7389325;19;20543;-83
2022/06/18 02:25:52;;;;;;;6.33;5.50;;;;;;;;;;7386111;19;20172;-83
2022/06/18 02:28:27;;;;;;;6.00;5.20;;;;;;;;;;7396048;19;20129;-83
2022/06/18 02:30:56;;;;;;;8.30;6.13;;;;;;;;;;7388585;19;20132;-82
2022/06/18 02:33:38;;;;;;;9.17;5.50;;;;;;;;;;7386926;19;20159;-80
2022/06/18 02:36:18;;;;;;;7.33;6.00;;;;;;;;;;7397597;19;20168;-80
2022/06/18 02:38:45;;;;;;;6.10;5.57;;;;;;;;;;7390304;19;20160;-81
2022/06/18 02:41:11;;;;;;;6.03;5.40;;;;;;;;;;7391675;19;20665;-83
2022/06/18 02:43:39;;;;;;;8.23;5.40;;;;;;;;;;7388784;19;20617;-83
2022/06/18 02:46:05;;;;;;;6.30;5.80;;;;;;;;;;7398191;19;20188;-83
2022/06/18 02:48:32;;;;;;;6.80;5.27;;;;;;;;;;7396184;19;20167;-81
2022/06/18 02:51:00;;;;;;;6.30;5.50;;;;;;;;;;7397260;19;20153;-81
2022/06/18 02:53:27;;;;;;;5.87;5.40;;;;;;;;;;7397723;19;20145;-81
2022/06/18 02:55:54;;;;;;;6.10;5.50;;;;;;;;;;7395570;19;20528;-80
2022/06/18 02:58:22;;;;;;;6.73;5.60;;;;;;;;;;7400578;19;20136;-81
2022/06/18 03:00:53;;;;;;;6.23;5.60;;;;;;;;;;7397715;19;20145;-81
2022/06/18 03:03:19;;;;;;;6.10;5.50;;;;;;;;;;7399442;19;20153;-82
2022/06/18 03:05:45;;;;;;;5.53;5.03;;;;;;;;;;7400351;19;20189;-83
2022/06/18 03:08:11;;;;;;;6.83;5.23;;;;;;;;;;7398015;19;20677;-79
2022/06/18 03:13:22;;;;;;;8.57;5.13;;;;;;;;;;7425804;19;20181;-80
2022/06/18 03:15:50;;;;;;;7.23;5.20;;;;;;;;;;7419902;19;20201;-83
2022/06/18 03:18:18;;;;;;;6.43;5.17;;;;;;;;;;7394786;19;20133;-78
2022/06/18 03:21:02;;;;;;;5.77;4.90;;;;;;;;;;7396843;19;20159;-81
2022/06/18 03:23:29;;;;;;;6.57;5.03;;;;;;;;;;7398537;19;20129;-81
2022/06/18 03:25:56;;;;;;;7.83;5.47;;;;;;;;;;7389314;19;20172;-81
2022/06/18 03:28:22;;;;;;;5.13;4.67;;;;;;;;;;7396575;19;20144;-82
2022/06/18 03:30:49;;;;;;;8.23;5.50;;;;;;;;;;7399559;19;20503;-81
2022/06/18 03:33:15;;;;;;;5.60;5.10;;;;;;;;;;7395255;19;20137;-81
2022/06/18 03:35:43;;;;;;;6.33;5.57;;;;;;;;;;7386281;19;24067;-82
2022/06/18 03:38:09;;;;;;;6.30;4.83;;;;;;;;;;7399021;19;20159;-83
2022/06/18 03:40:35;;;;;;;7.83;5.00;;;;;;;;;;7394997;19;20164;-81
2022/06/18 03:43:01;;;;;;;5.97;5.37;;;;;;;;;;7388684;19;20145;-83
2022/06/18 03:45:28;;;;;;;6.33;5.67;;;;;;;;;;7384723;19;20148;-82
2022/06/18 03:47:54;;;;;;;6.80;5.07;;;;;;;;;;7392118;19;20188;-82
2022/06/18 03:50:21;;;;;;;5.40;4.90;;;;;;;;;;7392751;19;20141;-80
2022/06/18 03:52:47;;;;;;;6.77;5.07;;;;;;;;;;7383945;19;20168;-81
2022/06/18 03:55:14;;;;;;;6.53;4.80;;;;;;;;;;7394784;19;20133;-82
2022/06/18 03:57:40;;;;;;;5.47;4.93;;;;;;;;;;7388891;19;20803;-82
2022/06/18 04:00:07;;;;;;;5.73;5.20;;;;;;;;;;7396840;19;20141;-82
2022/06/18 04:02:33;;;;;;;7.47;4.80;;;;;;;;;;7387995;19;20139;-82
2022/06/18 04:04:59;;;;;;;6.13;5.47;;;;;;;;;;7389951;19;20141;-82
2022/06/18 04:07:26;;;;;;;5.73;5.10;;;;;;;;;;7387206;19;20196;-82
2022/06/18 04:09:53;;;;;;;6.13;5.53;;;;;;;;;;7388124;19;20152;-84
2022/06/18 04:12:20;;;;;;;5.53;5.03;;;;;;;;;;7394329;19;20140;-82
2022/06/18 04:14:46;;;;;;;5.30;4.80;;;;;;;;;;7387466;19;20200;-82
2022/06/18 04:17:13;;;;;;;5.67;5.07;;;;;;;;;;7391321;19;20675;-82
2022/06/18 04:19:40;;;;;;;5.87;5.37;;;;;;;;;;7383843;19;20155;-84
2022/06/18 04:22:06;;;;;;;7.63;5.53;;;;;;;;;;7394674;19;20129;-81
2022/06/18 04:24:32;;;;;;;5.33;4.83;;;;;;;;;;7393402;19;20133;-83
2022/06/18 04:26:59;;;;;;;5.20;4.70;;;;;;;;;;7383912;19;20183;-82
2022/06/18 04:29:27;;;;;;;6.57;4.83;;;;;;;;;;7397333;19;20159;-80
2022/06/18 04:31:54;;;;;;;6.07;5.43;;;;;;;;;;7395367;19;20121;-81
2022/06/18 04:34:20;;;;;;;7.10;4.43;;;;;;;;;;7388550;19;20491;-83
2022/06/18 04:36:46;;;;;;;5.13;4.63;;;;;;;;;;7385471;19;20172;-81
2022/06/18 04:39:13;;;;;;;8.23;5.30;;;;;;;;;;7395220;19;20120;-82
2022/06/18 04:41:39;;;;;;;7.87;5.23;;;;;;;;;;7394403;19;20157;-81
2022/06/18 04:44:06;;;;;;;7.00;5.00;;;;;;;;;;7397977;19;20463;-83
2022/06/18 04:46:32;;;;;;;8.17;4.97;;;;;;;;;;7390651;19;20172;-83
2022/06/18 04:48:58;;;;;;;7.47;4.73;;;;;;;;;;7390576;19;20851;-84
2022/06/18 04:51:24;;;;;;;6.40;4.77;;;;;;;;;;7387096;19;20240;-84
2022/06/18 04:53:50;;;;;;;6.10;4.47;;;;;;;;;;7392444;19;20148;-84
2022/06/18 04:56:16;;;;;;;5.87;4.97;;;;;;;;;;7394510;19;20197;-84
2022/06/18 04:58:42;;;;;;;6.33;5.00;;;;;;;;;;7391833;19;20305;-83
2022/06/18 05:01:08;;;;;;;6.00;5.33;;;;;;;;;;7389540;19;20595;-82
2022/06/18 05:03:34;;;;;;;5.70;4.90;;;;;;;;;;7392973;19;20148;-82
2022/06/18 05:06:00;;;;;;;6.63;4.87;;;;;;;;;;7385140;19;20173;-82
2022/06/18 05:08:26;;;;;;;5.27;4.80;;;;;;;;;;7383762;19;20606;-82
2022/06/18 05:10:52;;;;;;;6.33;5.03;;;;;;;;;;7388055;19;20139;-81
2022/06/18 05:13:19;;;;;;;6.20;4.60;;;;;;;;;;7396916;19;20137;-81
2022/06/18 05:15:45;;;;;;;5.63;5.03;;;;;;;;;;7401957;19;20181;-81
2022/06/18 05:18:13;;;;;;;7.80;6.57;;;;;;;;;;7400566;19;20175;-81
2022/06/18 05:20:39;;;;;;;6.40;5.80;;;;;;;;;;7399669;19;20167;-81
2022/06/18 05:23:05;;;;;;;6.23;5.40;;;;;;;;;;7403699;19;20148;-81
2022/06/18 05:25:31;;;;;;;7.23;5.57;;;;;;;;;;7399965;19;20188;-81
2022/06/18 05:27:57;;;;;;;5.90;5.30;;;;;;;;;;7401041;19;20148;-81
2022/06/18 05:30:25;;;;;;;6.67;5.50;;;;;;;;;;7399102;19;20204;-81
2022/06/18 05:32:51;;;;;;;5.60;4.97;;;;;;;;;;7402738;19;20132;-81
2022/06/18 05:35:18;;;;;;;6.23;5.60;;;;;;;;;;7400066;19;20152;-82
2022/06/18 05:37:44;;;;;;;6.03;5.17;;;;;;;;;;7402004;19;20161;-81
2022/06/18 05:40:12;;;;;;;7.30;4.97;;;;;;;;;;7414192;19;20133;-82
2022/06/18 05:42:38;;;;;;;7.47;4.93;;;;;;;;;;7420976;19;20156;-83
2022/06/18 05:45:04;;;;;;;5.60;5.10;;;;;;;;;;7416841;19;20132;-83
2022/06/18 05:47:31;;;;;;;6.07;5.23;;;;;;;;;;7396874;19;20145;-84
2022/06/18 05:49:57;;;;;;;6.00;4.90;;;;;;;;;;7390017;19;20236;-83
2022/06/18 05:52:25;;;;;;;8.43;4.70;;;;;;;;;;7393828;19;20155;-82
2022/06/18 05:54:51;;;;;;;5.13;4.63;;;;;;;;;;7396826;19;20163;-83
2022/06/18 05:57:18;;;;;;;6.10;5.00;;;;;;;;;;7396731;19;20240;-82
2022/06/18 05:59:44;;;;;;;5.13;4.73;;;;;;;;;;7397760;19;20144;-83
2022/06/18 06:02:14;;;;;;;6.33;4.63;;;;;;;;;;7394734;19;20156;-82
2022/06/18 06:04:42;;;;;;;4.93;4.45;;;;;;;;;;7417143;19;20121;-81
2022/06/18 06:07:10;;;;;;;5.33;4.27;;;;;;;;;;7421834;19;20185;-81
2022/06/18 06:12:21;;;;;;;5.17;4.50;;;;;;;;;;7420439;19;20135;-81
2022/06/18 06:14:47;;;;;;;7.10;4.38;;;;;;;;;;7416055;19;20151;-81
2022/06/18 06:17:14;;;;;;;6.13;4.38;;;;;;;;;;7421298;19;20177;-81
2022/06/18 06:19:41;;;;;;;7.30;4.97;;;;;;;;;;7406700;19;20650;-82
2022/06/18 06:22:07;;;;;;;7.03;4.57;;;;;;;;;;7394442;19;20136;-81
2022/06/18 06:24:33;;;;;;;4.97;4.47;;;;;;;;;;7396417;19;20149;-82
2022/06/18 06:26:59;;;;;;;5.38;4.03;;;;;;;;;;7395303;19;20769;-81
2022/06/18 06:29:25;;;;;;;6.07;4.82;;;;;;;;;;7392086;19;20395;-80
2022/06/18 06:31:51;;;;;;;5.97;4.97;;;;;;;;;;7387419;19;20137;-79
2022/06/18 06:34:17;;;;;;;5.00;4.40;;;;;;;;;;7386664;19;20125;-79
2022/06/18 06:36:43;;;;;;;5.72;3.97;;;;;;;;;;7394313;19;20172;-82
2022/06/18 06:39:09;;;;;;;5.90;4.80;;;;;;;;;;7394614;19;20148;-81
2022/06/18 06:41:35;;;;;;;5.32;4.18;;;;;;;;;;7406730;19;20137;-82
2022/06/18 06:44:01;;;;;;;5.10;4.15;;;;;;;;;;7405891;19;20136;-80
2022/06/18 06:46:27;;;;;;;6.18;5.38;;;;;;;;;;7414259;19;20193;-81
2022/06/18 06:48:53;;;;;;;7.90;5.30;;;;;;;;;;7403140;19;20223;-81
2022/06/18 06:51:25;;;;;;;5.22;4.82;;;;;;;;;;7396009;19;20133;-81
2022/06/18 06:53:51;;;;;;;5.38;4.50;;;;;;;;;;7376937;19;20152;-81
2022/06/18 06:59:03;;;;;;;4.57;4.18;;;;;;;;;;7382328;19;20136;-79
2022/06/18 07:01:29;;;;;;;5.43;4.07;;;;;;;;;;7384736;19;20163;-79
2022/06/18 07:03:55;;;;;;;5.20;4.70;;;;;;;;;;7390330;19;20132;-80
2022/06/18 07:06:21;;;;;;;5.55;4.35;;;;;;;;;;7389253;19;20157;-80
2022/06/18 07:08:47;;;;;;;6.57;5.00;;;;;;;;;;7390442;19;20179;-80
2022/06/18 07:11:13;;;;;;;7.45;4.50;;;;;;;;;;7388451;19;20145;-79
2022/06/18 07:13:39;;;;;;;6.88;4.07;;;;;;;;;;7390814;19;20616;-79
2022/06/18 07:16:06;;;;;;;4.75;4.32;;;;;;;;;;7390114;19;20152;-79
2022/06/18 07:18:35;;;;;;;6.03;4.47;;;;;;;;;;7390820;19;20598;-79
2022/06/18 07:21:01;;;;;;;6.05;4.63;;;;;;;;;;7389581;19;20141;-79
2022/06/18 07:23:28;;;;;;;5.35;4.85;;;;;;;;;;7389161;19;20152;-79
2022/06/18 07:25:54;;;;;;;4.90;4.40;;;;;;;;;;7393006;19;20209;-79
2022/06/18 07:28:20;;;;;;;4.80;4.40;;;;;;;;;;7390320;19;20133;-79
2022/06/18 07:30:47;;;;;;;5.90;4.35;;;;;;;;;;7393994;19;20129;-78
2022/06/18 07:33:18;;;;;;;5.25;4.00;;;;;;;;;;7395418;19;20128;-78
2022/06/18 07:35:44;;;;;;;5.07;4.57;;;;;;;;;;7395642;19;20133;-78
2022/06/18 07:38:10;;;;;;;4.13;3.80;;;;;;;;;;7395230;19;20141;-79
2022/06/18 07:40:47;;;;;;;4.82;4.20;;;;;;;;;;7395964;19;20618;-79
2022/06/18 07:43:16;;;;;;;4.68;3.53;;;;;;;;;;7395448;19;20157;-79
2022/06/18 07:45:44;;;;;;;4.60;3.80;;;;;;;;;;7396016;19;20137;-80
2022/06/18 07:48:10;;;;;;;4.15;3.63;;;;;;;;;;7396711;19;20505;-79
2022/06/18 07:50:36;;;;;;;4.53;3.30;;;;;;;;;;7399562;19;20603;-80
2022/06/18 07:53:02;;;;;;;4.57;3.17;;;;;;;;;;7402875;19;20133;-80
2022/06/18 07:55:29;;;;;;;3.80;3.50;;;;;;;;;;7382667;19;20163;-80
2022/06/18 07:57:55;;;;;;;30.85;6.45;;;;;;;;;;7381337;19;20697;-80
2022/06/18 08:00:22;;;;;;;4.88;3.42;;;;;;;;;;7387590;19;20152;-80
2022/06/18 08:02:48;;;;;;;4.97;3.70;;;;;;;;;;7393335;19;20133;-80
2022/06/18 08:05:18;;;;;;;3.60;3.10;;;;;;;;;;7386646;19;20163;-81
2022/06/18 08:07:45;;;;;;;3.58;3.28;;;;;;;;;;7394634;19;20208;-81
2022/06/18 08:10:11;;;;;;;3.67;3.10;;;;;;;;;;7402360;19;20141;-81
2022/06/18 08:12:37;;;;;;;3.50;3.17;;;;;;;;;;7388838;19;20152;-80
2022/06/18 08:15:04;;;;;;;3.35;3.08;;;;;;;;;;7383741;19;20212;-81
2022/06/18 08:17:30;;;;;;;4.68;3.33;;;;;;;;;;7379955;19;20158;-81
2022/06/18 08:19:56;;;;;;;4.03;3.33;;;;;;;;;;7383033;19;20633;-82
2022/06/18 08:22:23;;;;;;;5.03;3.38;;;;;;;;;;7373693;19;20145;-82
2022/06/18 08:24:50;;;;;;;4.22;3.45;;;;;;;;;;7377744;19;20538;-80
2022/06/18 08:27:16;;;;;;;6.50;3.10;;;;;;;;;;7375753;19;20172;-81
2022/06/18 08:29:42;;;;;;;3.90;2.80;;;;;;;;;;7396280;19;20133;-82
2022/06/18 08:32:09;;;;;;;3.95;3.10;;;;;;;;;;7396460;19;20470;-81
2022/06/18 08:34:35;;;;;;;4.35;3.38;;;;;;;;;;7390548;19;20168;-82
2022/06/18 08:37:03;;;;;;;6.18;3.10;;;;;;;;;;7391153;19;20215;-81
2022/06/18 08:39:30;;;;;;;3.63;3.00;;;;;;;;;;7394523;19;20148;-81
2022/06/18 08:41:59;;;;;;;3.35;3.05;;;;;;;;;;7392891;19;20160;-82
2022/06/18 08:44:44;;;;;;;4.35;3.08;;;;;;;;;;7397716;19;20133;-82
2022/06/18 08:47:17;;;;;;;4.00;3.00;;;;;;;;;;7387434;19;20209;-80
2022/06/18 08:49:43;;;;;;;4.57;2.97;;;;;;;;;;7398277;19;20148;-81
2022/06/18 08:52:32;;;;;;;5.80;3.20;;;;;;;;;;7395409;19;20161;-80
2022/06/18 08:55:08;;;;;;;4.50;3.35;;;;;;;;;;7391756;19;20156;-80
2022/06/18 08:57:37;;;;;;;3.58;3.28;;;;;;;;;;7413639;19;20195;-81
2022/06/18 09:00:22;;;;;;;5.22;3.05;;;;;;;;;;7388441;19;20136;-80
2022/06/18 09:02:51;;;;;;;3.63;3.22;;;;;;;;;;7420499;19;20150;-80
2022/06/18 09:05:22;;;;;;;4.28;2.97;;;;;;;;;;7396314;19;20490;-80
2022/06/18 09:07:54;;;;;;;4.63;3.40;;;;;;;;;;7397381;19;20191;-80
2022/06/18 09:10:20;;;;;;;4.80;3.30;;;;;;;;;;7418679;19;20144;-80
2022/06/18 09:13:06;;;;;;;3.90;3.60;;;;;;;;;;7416367;19;20140;-80
2022/06/18 09:15:47;;;;;;;10.10;3.25;;;;;;;;;;7400119;19;20136;-81
2022/06/18 09:18:22;;;;;;;4.53;3.50;;;;;;;;;;7398206;19;20150;-80
2022/06/18 09:20:51;;;;;;;4.00;3.70;;;;;;;;;;7395884;19;20143;-81
2022/06/18 09:23:31;;;;;;;6.53;3.95;;;;;;;;;;7394562;19;20144;-81
2022/06/18 09:25:58;;;;;;;5.97;3.55;;;;;;;;;;7389843;19;20475;-81
2022/06/18 09:28:30;;;;;;;4.60;3.70;;;;;;;;;;7395740;19;20156;-81
2022/06/18 09:30:59;;;;;;;4.05;3.65;;;;;;;;;;7398919;19;20612;-81
2022/06/18 09:33:30;;;;;;;5.10;3.47;;;;;;;;;;7383212;19;20143;-82
2022/06/18 09:36:03;;;;;;;6.57;3.60;;;;;;;;;;7397348;19;20244;-81
2022/06/18 09:38:35;;;;;;;3.67;3.35;;;;;;;;;;7394729;19;20571;-81
2022/06/18 09:41:04;;;;;;;4.07;3.75;;;;;;;;;;7401106;19;20148;-81
2022/06/18 09:43:45;;;;;;;3.95;3.40;;;;;;;;;;7387297;19;20121;-81
2022/06/18 09:46:29;;;;;;;4.07;3.72;;;;;;;;;;7398563;19;20156;-81
2022/06/18 09:48:55;;;;;;;4.65;4.00;;;;;;;;;;7399100;19;20611;-81
2022/06/18 09:51:30;;;;;;;5.05;3.97;;;;;;;;;;7372163;19;20116;-81
2022/06/18 09:53:58;;;;;;;4.13;3.33;;;;;;;;;;7385266;19;20312;-82
2022/06/18 09:56:28;;;;;;;5.05;3.95;;;;;;;;;;7395147;19;20690;-81
2022/06/18 09:58:57;;;;;;;4.15;3.30;;;;;;;;;;7393596;19;20136;-81
2022/06/18 10:01:52;;;;;;;3.90;3.47;;;;;;;;;;7391615;19;20153;-81
2022/06/18 10:07:16;;;;;;;4.07;3.75;;;;;;;;;;7393349;19;20223;-82
2022/06/18 10:09:52;;;;;;;3.67;3.22;;;;;;;;;;7372399;19;20171;-82
2022/06/18 10:12:52;;;;;;;3.00;2.80;;;;;;;;;;7394966;19;20152;-83
2022/06/18 10:15:19;;;;;;;5.40;3.30;;;;;;;;;;7383973;19;20181;-82
2022/06/18 10:17:45;;;;;;;4.28;3.70;;;;;;;;;;7371505;19;20188;-83
2022/06/18 10:20:17;;;;;;;4.03;2.95;;;;;;;;;;7373027;19;20542;-83
2022/06/18 10:23:01;;;;;;;3.20;2.90;;;;;;;;;;7388209;19;20617;-83
2022/06/18 10:25:27;;;;;;;3.60;3.30;;;;;;;;;;7376722;19;20152;-82
2022/06/18 10:27:53;;;;;;;3.25;2.90;;;;;;;;;;7389246;19;20220;-82
2022/06/18 10:30:46;;;;;;;2.85;2.53;;;;;;;;;;7380139;19;20125;-82
2022/06/18 10:33:31;;;;;;;36.60;4.00;;;;;;;;;;7381319;19;20156;-82
2022/06/18 10:36:07;;;;;;;5.95;5.38;;;;;;;;;;7385464;19;20217;-82
2022/06/18 10:38:40;;;;;;;7.97;6.50;;;;;;;;;;7382706;19;20140;-82
2022/06/18 10:41:17;;;;;;;4.22;3.20;;;;;;;;;;7383632;19;20141;-82
2022/06/18 10:43:43;;;;;;;3.63;3.13;;;;;;;;;;7386414;19;20134;-82
2022/06/18 10:46:11;;;;;;;3.10;2.83;;;;;;;;;;7385457;19;20172;-82
2022/06/18 10:48:37;;;;;;;5.13;3.10;;;;;;;;;;7383625;19;20160;-83
2022/06/18 10:51:04;;;;;;;2.95;2.60;;;;;;;;;;7386481;19;20213;-83
2022/06/18 10:53:35;;;;;;;3.35;2.70;;;;;;;;;;7386771;19;20149;-82
2022/06/18 10:56:01;;;;;;;8.73;8.07;;;;;;;;;;7380806;19;20196;-82
2022/06/18 10:58:28;;;;;;;3.35;3.10;;;;;;;;;;7387062;19;20140;-83
2022/06/18 11:01:02;;;;;;;4.13;2.40;;;;;;;;;;7382756;19;20264;-83
2022/06/18 11:03:32;;;;;;;5.97;2.95;;;;;;;;;;7388415;19;20511;-83
2022/06/18 11:05:59;;;;;;;3.10;2.40;;;;;;;;;;7390358;19;20187;-83
2022/06/18 11:08:27;;;;;;;3.85;3.15;;;;;;;;;;7391515;19;20518;-83
2022/06/18 11:10:55;;;;;;;3.00;2.80;;;;;;;;;;7393083;19;20133;-83
2022/06/18 11:13:25;;;;;;;3.30;3.00;;;;;;;;;;7389478;19;20125;-83
2022/06/18 11:16:02;;;;;;;5.35;3.10;;;;;;;;;;7399012;19;20183;-83
2022/06/18 11:18:29;;;;;;;3.97;2.80;;;;;;;;;;7391226;19;20140;-83
2022/06/18 11:20:58;;;;;;;4.85;2.58;;;;;;;;;;7389422;19;20156;-83
2022/06/18 11:23:24;;;;;;;3.53;3.00;;;;;;;;;;7391771;19;20124;-83
2022/06/18 11:25:51;;;;;;;4.63;3.00;;;;;;;;;;7391926;19;20172;-83
2022/06/18 11:28:22;;;;;;;4.80;3.33;;;;;;;;;;7399190;19;21187;-83
2022/06/18 11:30:49;;;;;;;4.18;3.08;;;;;;;;;;7392516;19;20614;-83
2022/06/18 11:33:25;;;;;;;3.95;3.38;;;;;;;;;;7384912;19;20155;-83
2022/06/18 11:35:51;;;;;;;4.22;3.20;;;;;;;;;;7383230;19;20183;-83
2022/06/18 11:38:22;;;;;;;5.95;4.43;;;;;;;;;;7387257;19;20227;-83
2022/06/18 11:40:53;;;;;;;3.20;2.90;;;;;;;;;;7392533;19;20147;-83
2022/06/18 11:43:25;;;;;;;6.35;3.78;;;;;;;;;;7386437;19;20144;-82
2022/06/18 11:45:56;;;;;;;5.80;4.60;;;;;;;;;;7383859;19;20551;-83
2022/06/18 11:48:41;;;;;;;6.90;3.83;;;;;;;;;;7388318;19;20228;-83
2022/06/18 11:51:13;;;;;;;4.75;3.30;;;;;;;;;;7383076;19;20133;-83
2022/06/18 11:53:49;;;;;;;3.97;3.30;;;;;;;;;;7381119;19;20488;-83
2022/06/18 11:56:26;;;;;;;5.53;3.75;;;;;;;;;;7354485;19;20231;-82
2022/06/18 11:58:56;;;;;;;8.45;4.05;;;;;;;;;;7379937;19;20629;-82
2022/06/18 12:01:22;;;;;;;9.88;4.60;;;;;;;;;;7380898;19;20226;-82
2022/06/18 12:03:53;;;;;;;7.75;3.92;;;;;;;;;;7395067;19;20148;-83
2022/06/18 12:06:38;;;;;;;8.57;4.72;;;;;;;;;;7408137;19;20160;-83
2022/06/18 12:09:04;;;;;;;10.68;4.60;;;;;;;;;;7415126;19;20132;-83
2022/06/18 12:11:48;;;;;;;9.18;4.13;;;;;;;;;;7406608;19;20714;-83
2022/06/18 12:14:34;;;;;;;13.55;4.75;;;;;;;;;;7386741;19;20144;-82
2022/06/18 12:17:06;;;;;;;13.18;5.00;;;;;;;;;;7417181;19;20152;-82
2022/06/18 12:19:41;;;;;;;11.63;5.00;;;;;;;;;;7412673;19;20205;-83
2022/06/18 12:22:16;;;;;;;7.40;4.05;;;;;;;;;;7418040;19;20148;-83
2022/06/18 12:24:43;;;;;;;11.18;5.15;;;;;;;;;;7415724;19;20143;-82
2022/06/18 12:27:12;;;;;;;15.13;5.05;;;;;;;;;;7385864;19;20152;-81
2022/06/18 12:29:57;;;;;;;11.27;4.68;;;;;;;;;;7386729;19;20153;-82
2022/06/18 12:32:29;;;;;;;10.20;5.05;;;;;;;;;;7389461;19;20228;-82
2022/06/18 12:34:55;;;;;;;12.77;4.47;;;;;;;;;;7392898;19;20137;-82
2022/06/18 12:37:37;;;;;;;11.63;5.25;;;;;;;;;;7415703;19;20381;-83
2022/06/18 12:40:06;;;;;;;9.00;4.63;;;;;;;;;;7414850;19;20124;-83
2022/06/18 12:42:35;;;;;;;11.90;4.57;;;;;;;;;;7383972;19;20140;-82
2022/06/18 12:45:15;;;;;;;12.90;5.35;;;;;;;;;;7378636;19;20156;-82
2022/06/18 12:47:41;;;;;;;14.50;4.82;;;;;;;;;;7380538;19;20179;-82
2022/06/18 12:50:10;;;;;;;17.88;4.60;;;;;;;;;;7378387;19;20124;-82
2022/06/18 12:52:54;;;;;;;13.25;4.50;;;;;;;;;;7380611;19;20148;-82
2022/06/18 12:55:24;;;;;;;15.88;5.30;;;;;;;;;;7382280;19;20152;-82
2022/06/18 12:57:52;;;;;;;14.38;4.80;;;;;;;;;;7388636;19;20516;-83
2022/06/18 13:00:26;;;;;;;13.30;4.90;;;;;;;;;;7385503;19;20317;-82
2022/06/18 13:02:58;;;;;;;12.23;4.50;;;;;;;;;;7389388;19;20160;-82
2022/06/18 13:05:24;;;;;;;14.50;5.28;;;;;;;;;;7388349;19;20738;-82
2022/06/18 13:07:53;;;;;;;14.98;4.55;;;;;;;;;;7382367;19;20172;-82
2022/06/18 13:10:28;;;;;;;20.90;5.00;;;;;;;;;;7389957;19;20156;-83
2022/06/18 13:13:00;;;;;;;13.75;5.43;;;;;;;;;;7383569;19;20139;-83
2022/06/18 13:15:37;;;;;;;13.60;4.90;;;;;;;;;;7389771;19;20128;-83
2022/06/18 13:18:07;;;;;;;14.98;4.82;;;;;;;;;;7387881;19;20116;-82
2022/06/18 13:20:42;;;;;;;15.90;5.07;;;;;;;;;;7386779;19;20630;-82
2022/06/18 13:28:45;;;;;;;14.32;4.75;;;;;;;;;;7389604;19;20245;-83
2022/06/18 13:33:43;;;;;;;16.38;5.40;;;;;;;;;;7387198;19;20145;-81
2022/06/18 13:36:29;;;;;;;12.63;4.97;;;;;;;;;;7388732;19;20167;-80
2022/06/18 13:38:58;;;;;;;17.90;5.80;;;;;;;;;;7384591;19;20143;-82
2022/06/18 13:41:27;;;;;;;18.30;5.45;;;;;;;;;;7383466;19;20207;-82
2022/06/18 13:44:09;;;;;;;36.78;7.50;;;;;;;;;;7387622;19;20606;-81
2022/06/18 13:47:00;;;;;;;13.82;5.82;;;;;;;;;;7372805;19;20649;-83
2022/06/18 13:49:35;;;;;;;12.38;5.20;;;;;;;;;;7384008;19;20232;-83
2022/06/18 13:52:02;;;;;;;15.60;5.45;;;;;;;;;;7373771;19;20625;-82
2022/06/18 13:54:39;;;;;;;19.40;5.70;;;;;;;;;;7371385;19;20170;-82
2022/06/18 13:57:07;;;;;;;17.27;5.60;;;;;;;;;;7387789;19;20180;-82
2022/06/18 13:59:33;;;;;;;18.13;5.30;;;;;;;;;;7407994;19;20160;-82
2022/06/18 14:02:01;;;;;;;19.17;5.28;;;;;;;;;;7392765;19;20128;-82
2022/06/18 14:04:35;;;;;;;14.98;5.03;;;;;;;;;;7374337;19;20701;-82
2022/06/18 14:07:04;;;;;;;14.25;5.03;;;;;;;;;;7372350;19;20151;-82
2022/06/18 14:09:32;;;;;;;19.90;5.97;;;;;;;;;;7374108;19;20132;-82
2022/06/18 14:12:10;;;;;;;16.05;4.95;;;;;;;;;;7366990;19;20183;-83
2022/06/18 14:14:37;;;;;;;12.65;5.75;;;;;;;;;;7377452;19;20653;-83
2022/06/18 14:17:06;;;;;;;17.65;5.30;;;;;;;;;;7371841;19;20141;-83
2022/06/18 14:19:36;;;;;;;15.13;5.50;;;;;;;;;;7369644;19;20127;-83
2022/06/18 14:22:04;;;;;;;14.45;5.32;;;;;;;;;;7371264;19;20144;-81
2022/06/18 14:24:44;;;;;;;13.73;5.20;;;;;;;;;;7379393;19;20144;-81
2022/06/18 14:27:22;;;;;;;17.60;5.53;;;;;;;;;;7373952;19;20152;-80
2022/06/18 14:29:48;;;;;;;13.50;4.88;;;;;;;;;;7381684;19;20556;-81
2022/06/18 14:32:23;;;;;;;14.65;5.57;;;;;;;;;;7381170;19;20152;-80
2022/06/18 14:34:49;;;;;;;13.77;5.60;;;;;;;;;;7381525;19;20168;-81
2022/06/18 14:37:15;;;;;;;19.58;5.70;;;;;;;;;;7385969;19;20140;-80
2022/06/18 14:39:49;;;;;;;12.55;5.60;;;;;;;;;;7394856;19;20188;-80
2022/06/18 14:42:34;;;;;;;14.15;6.03;;;;;;;;;;7389431;19;20143;-81
2022/06/18 14:45:09;;;;;;;16.40;5.72;;;;;;;;;;7411535;19;20113;-80
2022/06/18 14:47:35;;;;;;;14.68;5.93;;;;;;;;;;7404939;19;20152;-81
2022/06/18 14:50:16;;;;;;;20.15;5.50;;;;;;;;;;7396153;19;20558;-80
2022/06/18 14:52:42;;;;;;;23.23;6.50;;;;;;;;;;7395151;19;20604;-81
2022/06/18 14:55:24;;;;;;;17.05;5.72;;;;;;;;;;7395112;19;20963;-80
2022/06/18 14:57:50;;;;;;;15.32;5.50;;;;;;;;;;7399118;19;20174;-80
2022/06/18 15:00:16;;;;;;;14.32;5.50;;;;;;;;;;7397404;19;20144;-83
2022/06/18 15:02:46;;;;;;;14.35;5.43;;;;;;;;;;7387398;19;20156;-83
2022/06/18 15:05:20;;;;;;;18.33;5.70;;;;;;;;;;7383471;19;20168;-80
2022/06/18 15:07:46;;;;;;;17.90;5.35;;;;;;;;;;7394788;19;20167;-80
2022/06/18 15:10:15;;;;;;;16.02;5.85;;;;;;;;;;7395525;19;20148;-80
2022/06/18 15:12:41;;;;;;;19.83;6.32;;;;;;;;;;7396000;19;20192;-80
2022/06/18 15:15:09;;;;;;;13.85;5.75;;;;;;;;;;7385947;19;20215;-80
2022/06/18 15:17:49;;;;;;;14.68;5.75;;;;;;;;;;7383406;19;20255;-80
2022/06/18 15:25:23;;;;;;;18.40;6.55;;;;;;;;;;7397102;19;20121;-81
2022/06/18 15:27:51;;;;;;;16.45;5.75;;;;;;;;;;7391143;19;20535;-80
2022/06/18 15:30:38;;;;;;;17.35;5.82;;;;;;;;;;7397675;19;20116;-80
2022/06/18 15:33:15;;;;;;;19.35;6.00;;;;;;;;;;7390731;19;20144;-80
2022/06/18 15:35:42;;;;;;;16.55;5.70;;;;;;;;;;7384814;19;20159;-81
2022/06/18 15:38:27;;;;;;;22.17;6.00;;;;;;;;;;7396871;19;20157;-82
2022/06/18 15:40:55;;;;;;;15.93;5.28;;;;;;;;;;7396820;19;20136;-81
2022/06/18 15:43:21;;;;;;;28.63;6.95;;;;;;;;;;7395421;19;20152;-82
2022/06/18 15:45:51;;;;;;;20.42;7.22;;;;;;;;;;7396501;19;20170;-81
2022/06/18 15:48:26;;;;;;;20.77;5.15;;;;;;;;;;7396131;19;20552;-81
2022/06/18 15:50:57;;;;;;;15.60;4.95;;;;;;;;;;7394324;19;20192;-82
2022/06/18 15:53:26;;;;;;;17.85;5.28;;;;;;;;;;7381924;19;20148;-82
2022/06/18 15:55:53;;;;;;;20.33;5.63;;;;;;;;;;7387473;19;20200;-82
2022/06/18 15:58:20;;;;;;;20.65;5.97;;;;;;;;;;7387916;19;20216;-82
2022/06/18 16:00:47;;;;;;;15.30;5.30;;;;;;;;;;7402439;19;20190;-82
2022/06/18 16:03:18;;;;;;;19.05;4.85;;;;;;;;;;7427193;19;20159;-82
2022/06/18 16:05:45;;;;;;;16.75;5.13;;;;;;;;;;7422917;19;20145;-81
2022/06/18 16:08:31;;;;;;;18.83;5.55;;;;;;;;;;7423029;19;20523;-82
2022/06/18 16:11:14;;;;;;;17.13;5.03;;;;;;;;;;7412828;19;20137;-81
2022/06/18 16:13:40;;;;;;;17.02;5.43;;;;;;;;;;7389629;19;20207;-81
2022/06/18 16:16:18;;;;;;;17.35;5.32;;;;;;;;;;7388416;19;20156;-81
2022/06/18 16:18:44;;;;;;;15.00;5.18;;;;;;;;;;7391722;19;20131;-81
2022/06/18 16:21:11;;;;;;;19.52;5.38;;;;;;;;;;7390462;19;20128;-81
2022/06/18 16:23:38;;;;;;;25.25;5.15;;;;;;;;;;7391278;19;20148;-81
2022/06/18 16:26:05;;;;;;;14.07;4.95;;;;;;;;;;7384431;19;20180;-81
2022/06/18 16:28:37;;;;;;;20.27;4.75;;;;;;;;;;7387865;19;20172;-81
2022/06/18 16:31:04;;;;;;;15.27;5.47;;;;;;;;;;7384353;19;20152;-81
2022/06/18 16:33:30;;;;;;;18.15;5.00;;;;;;;;;;7374175;19;20149;-81
2022/06/18 16:36:00;;;;;;;17.50;5.10;;;;;;;;;;7367568;19;20160;-81
2022/06/18 16:38:29;;;;;;;22.40;5.25;;;;;;;;;;7371720;19;20129;-81
2022/06/18 16:41:13;;;;;;;16.85;4.43;;;;;;;;;;7375324;19;20149;-81
2022/06/18 16:43:49;;;;;;;14.93;4.10;;;;;;;;;;7370322;19;21118;-81
2022/06/18 16:46:21;;;;;;;13.73;4.28;;;;;;;;;;7382493;19;20159;-81
2022/06/18 16:49:10;;;;;;;14.55;4.05;;;;;;;;;;7373845;19;20193;-81
2022/06/18 16:51:36;;;;;;;15.02;4.30;;;;;;;;;;7377742;19;20153;-81